createdAt,value
2022-11-27T00:01:13.594Z,81.21
2022-11-27T00:03:41.326Z,81.37
2022-11-27T00:06:11.764Z,81.33
2022-11-27T00:08:38.296Z,81.17
2022-11-27T00:11:13.927Z,80.76
2022-11-27T00:13:40.771Z,81.01
2022-11-27T00:16:07.681Z,80.49
2022-11-27T00:18:34.778Z,79.53
2022-11-27T00:21:06.638Z,80.01
2022-11-27T00:23:34.146Z,80.05
2022-11-27T00:26:01.658Z,79.88
2022-11-27T00:28:28.610Z,79.84
2022-11-27T00:31:01.732Z,79.64
2022-11-27T00:33:28.940Z,79.63
2022-11-27T00:35:55.638Z,79.38
2022-11-27T00:38:22.231Z,78.99
2022-11-27T00:40:48.906Z,79.54
2022-11-27T00:43:15.428Z,79.11
2022-11-27T00:45:41.921Z,78.61
2022-11-27T00:48:08.413Z,79.87
2022-11-27T00:50:34.903Z,79.72
2022-11-27T00:53:01.414Z,79.13
2022-11-27T00:55:27.940Z,79.72
2022-11-27T00:57:54.999Z,79.72
2022-11-27T01:00:22.678Z,80.37
2022-11-27T01:02:49.299Z,79.12
2022-11-27T01:05:15.951Z,79.95
2022-11-27T01:07:42.476Z,79.37
2022-11-27T01:10:09.366Z,80.69
2022-11-27T01:12:35.862Z,80.80
2022-11-27T01:15:02.383Z,81.37
2022-11-27T01:17:29.471Z,79.82
2022-11-27T01:19:55.941Z,79.90
2022-11-27T01:22:22.508Z,79.31
2022-11-27T01:24:49.006Z,79.19
2022-11-27T01:27:15.611Z,79.00
2022-11-27T01:29:42.123Z,79.25
2022-11-27T01:32:08.650Z,80.01
2022-11-27T01:34:35.317Z,80.19
2022-11-27T01:37:01.819Z,80.99
2022-11-27T01:39:28.357Z,81.80
2022-11-27T01:41:54.862Z,81.80
2022-11-27T01:44:24.335Z,82.47
2022-11-27T01:46:55.245Z,82.06
2022-11-27T01:49:33.248Z,81.96
2022-11-27T01:52:01.854Z,83.51
2022-11-27T01:54:34.090Z,83.93
2022-11-27T01:57:07.689Z,83.96
2022-11-27T01:59:34.397Z,83.69
2022-11-27T02:02:02.808Z,84.22
2022-11-27T02:04:29.709Z,86.01
2022-11-27T02:06:58.747Z,85.95
2022-11-27T02:09:26.775Z,85.39
2022-11-27T02:12:10.654Z,85.66
2022-11-27T02:15:02.833Z,85.02
2022-11-27T02:17:38.526Z,85.24
2022-11-27T02:20:18.377Z,86.63
2022-11-27T02:23:03.733Z,86.72
2022-11-27T02:25:43.362Z,87.02
2022-11-27T02:28:37.822Z,88.01
2022-11-27T02:31:18.357Z,87.41
2022-11-27T02:33:48.880Z,86.88
2022-11-27T02:36:21.290Z,87.45
2022-11-27T02:39:02.755Z,87.31
2022-11-27T02:41:52.849Z,87.10
2022-11-27T02:44:21.819Z,87.00
2022-11-27T02:46:49.883Z,87.40
2022-11-27T02:49:19.204Z,88.04
2022-11-27T02:51:54.815Z,89.32
2022-11-27T02:54:29.917Z,87.99
2022-11-27T02:57:00.502Z,87.61
2022-11-27T02:59:31.543Z,88.23
2022-11-27T03:02:02.901Z,88.43
2022-11-27T03:04:37.701Z,89.16
2022-11-27T03:07:09.922Z,89.52
2022-11-27T03:09:40.218Z,89.83
2022-11-27T03:12:09.934Z,88.60
2022-11-27T03:14:39.334Z,88.43
2022-11-27T03:17:21.410Z,87.80
2022-11-27T03:19:54.051Z,88.21
2022-11-27T03:22:20.621Z,88.31
2022-11-27T03:24:49.807Z,88.95
2022-11-27T03:27:23.123Z,89.67
2022-11-27T03:29:56.679Z,90.09
2022-11-27T03:32:23.913Z,89.36
2022-11-27T03:34:50.731Z,90.47
2022-11-27T03:37:17.662Z,89.19
2022-11-27T03:39:44.410Z,89.17
2022-11-27T03:42:47.147Z,90.04
2022-11-27T03:45:26.077Z,90.48
2022-11-27T03:48:17.059Z,90.80
2022-11-27T03:51:10.339Z,90.99
2022-11-27T03:53:39.793Z,91.68
2022-11-27T03:56:41.775Z,91.35
2022-11-27T03:59:15.709Z,89.68
2022-11-27T04:01:42.609Z,90.97
2022-11-27T04:04:09.290Z,90.89
2022-11-27T04:06:35.890Z,91.77
2022-11-27T04:09:02.405Z,92.17
2022-11-27T04:11:28.918Z,92.38
2022-11-27T04:13:55.453Z,92.59
2022-11-27T04:16:22.355Z,91.90
2022-11-27T04:18:48.901Z,92.86
2022-11-27T04:21:16.909Z,92.60
2022-11-27T04:23:44.724Z,92.32
2022-11-27T04:26:11.556Z,92.31
2022-11-27T04:28:38.108Z,93.10
2022-11-27T04:31:04.791Z,93.29
2022-11-27T04:33:31.449Z,92.98
2022-11-27T04:35:57.969Z,93.22
2022-11-27T04:38:24.443Z,93.53
2022-11-27T04:40:54.020Z,93.48
2022-11-27T04:43:20.446Z,94.01
2022-11-27T04:45:46.988Z,92.82
2022-11-27T04:48:13.470Z,91.78
2022-11-27T04:50:39.960Z,90.85
2022-11-27T04:53:06.513Z,89.87
2022-11-27T04:55:33.029Z,90.15
2022-11-27T04:57:59.609Z,90.03
2022-11-27T05:00:26.179Z,90.59
2022-11-27T05:02:52.740Z,90.51
2022-11-27T05:05:19.292Z,91.02
2022-11-27T05:07:45.815Z,91.12
2022-11-27T05:10:12.849Z,91.42
2022-11-27T05:12:39.404Z,91.18
2022-11-27T05:15:06.569Z,90.72
2022-11-27T05:17:33.041Z,90.64
2022-11-27T05:19:59.553Z,90.79
2022-11-27T05:22:26.028Z,91.03
2022-11-27T05:24:52.524Z,91.16
2022-11-27T05:27:19.032Z,90.45
2022-11-27T05:29:45.583Z,91.86
2022-11-27T05:32:12.028Z,90.57
2022-11-27T05:34:38.686Z,90.12
2022-11-27T05:37:05.464Z,90.68
2022-11-27T05:39:31.995Z,91.54
2022-11-27T05:41:58.502Z,92.04
2022-11-27T05:44:26.684Z,91.11
2022-11-27T05:46:53.256Z,90.86
2022-11-27T05:49:19.799Z,91.00
2022-11-27T05:51:50.957Z,91.33
2022-11-27T05:54:18.729Z,92.26
2022-11-27T05:56:45.222Z,92.07
2022-11-27T05:59:12.637Z,92.59
2022-11-27T06:01:39.221Z,92.21
2022-11-27T06:04:05.849Z,92.63
2022-11-27T06:06:32.357Z,92.47
2022-11-27T06:08:58.889Z,92.35
2022-11-27T06:11:25.601Z,91.84
2022-11-27T06:13:52.119Z,91.59
2022-11-27T06:16:21.144Z,91.09
2022-11-27T06:18:55.544Z,90.61
2022-11-27T06:21:23.371Z,91.10
2022-11-27T06:23:54.033Z,91.90
2022-11-27T06:26:26.824Z,90.92
2022-11-27T06:28:55.120Z,91.77
2022-11-27T06:31:24.803Z,93.10
2022-11-27T06:33:52.393Z,93.10
2022-11-27T06:36:20.200Z,93.11
2022-11-27T06:38:46.900Z,92.90
2022-11-27T06:41:18.576Z,93.38
2022-11-27T06:43:45.475Z,93.17
2022-11-27T06:46:15.441Z,93.42
2022-11-27T06:48:43.280Z,92.58
2022-11-27T06:51:12.704Z,92.37
2022-11-27T06:53:39.555Z,92.37
2022-11-27T06:56:09.115Z,93.19
2022-11-27T06:58:36.648Z,92.84
2022-11-27T07:01:06.090Z,93.14
2022-11-27T07:03:32.607Z,92.20
2022-11-27T07:06:04.023Z,91.05
2022-11-27T07:08:30.962Z,91.28
2022-11-27T07:11:07.757Z,91.18
2022-11-27T07:13:34.301Z,90.27
2022-11-27T07:16:02.601Z,90.52
2022-11-27T07:18:39.708Z,91.44
2022-11-27T07:21:06.366Z,91.06
2022-11-27T07:23:33.251Z,90.43
2022-11-27T07:26:04.814Z,90.87
2022-11-27T07:28:31.310Z,91.10
2022-11-27T07:30:58.703Z,91.69
2022-11-27T07:33:25.745Z,91.86
2022-11-27T07:36:04.313Z,91.90
2022-11-27T07:38:30.817Z,91.00
2022-11-27T07:41:01.614Z,91.83
2022-11-27T07:43:29.498Z,91.87
2022-11-27T07:45:56.424Z,92.39
2022-11-27T07:48:23.506Z,92.32
2022-11-27T07:50:50.192Z,92.56
2022-11-27T07:53:17.201Z,91.91
2022-11-27T07:55:43.661Z,91.59
2022-11-27T07:58:10.155Z,91.95
2022-11-27T08:00:36.869Z,91.52
2022-11-27T08:03:03.633Z,91.00
2022-11-27T08:05:33.196Z,91.20
2022-11-27T08:08:01.172Z,90.62
2022-11-27T08:10:27.716Z,90.60
2022-11-27T08:12:54.213Z,91.15
2022-11-27T08:15:20.685Z,90.50
2022-11-27T08:17:47.819Z,90.60
2022-11-27T08:20:14.318Z,90.82
2022-11-27T08:22:40.960Z,91.51
2022-11-27T08:25:07.974Z,90.71
2022-11-27T08:27:34.518Z,91.21
2022-11-27T08:30:01.008Z,91.69
2022-11-27T08:32:27.526Z,91.31
2022-11-27T08:34:53.974Z,90.64
2022-11-27T08:37:21.865Z,90.63
2022-11-27T08:39:48.459Z,90.45
2022-11-27T08:42:15.357Z,90.94
2022-11-27T08:44:42.106Z,91.43
2022-11-27T08:47:09.023Z,91.59
2022-11-27T08:49:37.275Z,91.77
2022-11-27T08:52:05.603Z,90.80
2022-11-27T08:54:32.108Z,91.22
2022-11-27T08:56:58.573Z,91.99
2022-11-27T08:59:25.123Z,92.09
2022-11-27T09:01:51.579Z,92.49
2022-11-27T09:04:18.191Z,92.06
2022-11-27T09:06:44.752Z,92.62
2022-11-27T09:09:11.351Z,93.03
2022-11-27T09:11:38.174Z,92.57
2022-11-27T09:14:05.687Z,92.71
2022-11-27T09:16:32.595Z,91.78
2022-11-27T09:18:59.223Z,92.02
2022-11-27T09:21:27.311Z,92.56
2022-11-27T09:24:02.801Z,92.24
2022-11-27T09:26:29.794Z,92.86
2022-11-27T09:28:58.528Z,91.68
2022-11-27T09:31:26.012Z,92.06
2022-11-27T09:33:52.842Z,92.12
2022-11-27T09:36:22.451Z,91.63
2022-11-27T09:38:48.879Z,91.70
2022-11-27T09:41:39.291Z,91.25
2022-11-27T09:44:24.678Z,90.81
2022-11-27T09:46:52.852Z,90.99
2022-11-27T09:49:44.118Z,90.55
2022-11-27T09:52:27.802Z,90.80
2022-11-27T09:55:01.836Z,90.13
2022-11-27T09:57:33.287Z,90.41
2022-11-27T10:00:04.278Z,90.63
2022-11-27T10:02:32.968Z,90.58
2022-11-27T10:05:13.713Z,90.14
2022-11-27T10:08:15.841Z,89.98
2022-11-27T10:10:52.332Z,89.80
2022-11-27T10:13:25.074Z,89.08
2022-11-27T10:16:01.386Z,89.40
2022-11-27T10:18:34.060Z,88.99
2022-11-27T10:21:15.104Z,88.57
2022-11-27T10:24:16.349Z,88.99
2022-11-27T10:26:50.767Z,88.63
2022-11-27T10:29:22.980Z,88.17
2022-11-27T10:31:59.147Z,88.85
2022-11-27T10:34:28.322Z,88.29
2022-11-27T10:36:56.630Z,88.12
2022-11-27T10:39:33.086Z,87.84
2022-11-27T10:42:08.784Z,87.14
2022-11-27T10:44:38.731Z,87.33
2022-11-27T10:47:10.410Z,86.85
2022-11-27T10:49:40.238Z,86.71
2022-11-27T10:52:14.853Z,86.39
2022-11-27T10:54:42.950Z,85.80
2022-11-27T10:57:57.835Z,86.53
2022-11-27T11:00:25.561Z,85.93
2022-11-27T11:03:03.617Z,85.34
2022-11-27T11:05:41.396Z,85.23
2022-11-27T11:08:20.249Z,84.49
2022-11-27T11:10:57.218Z,85.06
2022-11-27T11:13:27.890Z,84.53
2022-11-27T11:16:06.002Z,84.00
2022-11-27T11:18:43.170Z,82.77
2022-11-27T11:21:17.421Z,81.41
2022-11-27T11:23:46.869Z,80.99
2022-11-27T11:26:25.802Z,81.13
2022-11-27T11:28:55.919Z,81.10
2022-11-27T11:31:31.215Z,79.60
2022-11-27T11:34:23.996Z,79.17
2022-11-27T11:37:06.305Z,79.90
2022-11-27T11:39:39.234Z,79.08
2022-11-27T11:42:11.131Z,77.98
2022-11-27T11:44:39.612Z,77.66
2022-11-27T11:47:06.387Z,77.57
2022-11-27T11:49:34.308Z,77.20
2022-11-27T11:52:22.192Z,75.81
2022-11-27T11:54:51.825Z,75.30
2022-11-27T11:57:38.764Z,74.91
2022-11-27T12:00:15.903Z,74.42
2022-11-27T12:02:50.333Z,74.29
2022-11-27T12:05:29.391Z,74.61
2022-11-27T12:08:04.907Z,73.81
2022-11-27T12:10:45.683Z,73.46
2022-11-27T12:13:29.052Z,74.71
2022-11-27T12:16:14.693Z,75.22
2022-11-27T12:18:51.471Z,75.55
2022-11-27T12:21:43.944Z,74.68
2022-11-27T12:24:36.287Z,74.79
2022-11-27T12:27:14.948Z,74.24
2022-11-27T12:29:53.107Z,73.83
2022-11-27T12:32:41.013Z,73.32
2022-11-27T12:35:32.754Z,73.28
2022-11-27T12:38:10.560Z,73.74
2022-11-27T12:41:22.195Z,73.41
2022-11-27T12:43:56.152Z,72.64
2022-11-27T12:46:28.515Z,72.07
2022-11-27T12:49:36.819Z,72.17
2022-11-27T12:52:09.158Z,71.69
2022-11-27T12:54:47.774Z,71.75
2022-11-27T12:57:21.172Z,71.59
2022-11-27T12:59:56.823Z,71.25
2022-11-27T13:02:24.561Z,71.53
2022-11-27T13:05:02.756Z,72.36
2022-11-27T13:08:01.624Z,71.13
2022-11-27T13:10:41.281Z,71.04
2022-11-27T13:13:16.802Z,71.54
2022-11-27T13:15:52.292Z,71.52
2022-11-27T13:18:26.669Z,71.33
2022-11-27T13:20:54.179Z,71.49
2022-11-27T13:23:21.355Z,71.05
2022-11-27T13:25:54.716Z,71.05
2022-11-27T13:28:38.531Z,70.12
2022-11-27T13:31:06.872Z,69.56
2022-11-27T13:33:41.296Z,68.86
2022-11-27T13:36:23.617Z,68.64
2022-11-27T13:38:59.093Z,70.26
2022-11-27T13:41:41.488Z,69.53
2022-11-27T13:44:25.763Z,70.26
2022-11-27T13:46:55.539Z,69.88
2022-11-27T13:49:29.207Z,69.28
2022-11-27T13:52:08.562Z,69.67
2022-11-27T13:54:35.350Z,69.67
2022-11-27T13:57:19.103Z,70.08
2022-11-27T14:00:09.473Z,69.04
2022-11-27T14:02:46.443Z,69.70
2022-11-27T14:05:15.810Z,69.18
2022-11-27T14:07:55.127Z,69.06
2022-11-27T14:10:25.236Z,69.40
2022-11-27T14:13:00.926Z,69.60
2022-11-27T14:15:29.797Z,69.97
2022-11-27T14:18:21.160Z,70.04
2022-11-27T14:20:55.544Z,70.08
2022-11-27T14:23:36.104Z,70.33
2022-11-27T14:26:15.563Z,69.83
2022-11-27T14:28:45.073Z,70.92
2022-11-27T14:31:33.354Z,70.86
2022-11-27T14:34:23.100Z,70.33
2022-11-27T14:36:52.159Z,71.13
2022-11-27T14:39:24.660Z,71.52
2022-11-27T14:42:01.674Z,70.94
2022-11-27T14:44:28.850Z,71.77
2022-11-27T14:46:58.049Z,71.74
2022-11-27T14:49:27.451Z,71.52
2022-11-27T14:52:03.065Z,71.99
2022-11-27T14:54:34.608Z,71.21
2022-11-27T14:57:01.860Z,71.51
2022-11-27T14:59:28.420Z,71.25
2022-11-27T15:02:22.243Z,71.66
2022-11-27T15:05:02.480Z,72.18
2022-11-27T15:07:31.588Z,71.88
2022-11-27T15:09:59.679Z,71.38
2022-11-27T15:12:34.949Z,71.86
2022-11-27T15:15:06.968Z,71.75
2022-11-27T15:17:37.273Z,71.68
2022-11-27T15:20:30.935Z,72.65
2022-11-27T15:22:59.866Z,72.60
2022-11-27T15:25:35.625Z,72.69
2022-11-27T15:28:02.439Z,72.66
2022-11-27T15:30:29.406Z,72.99
2022-11-27T15:32:56.143Z,73.47
2022-11-27T15:35:26.654Z,73.23
2022-11-27T15:37:55.850Z,73.20
2022-11-27T15:40:32.346Z,74.14
2022-11-27T15:42:59.263Z,75.16
2022-11-27T15:45:31.695Z,75.58
2022-11-27T15:48:02.627Z,76.90
2022-11-27T15:50:30.337Z,77.07
2022-11-27T15:52:57.312Z,77.72
2022-11-27T15:55:23.901Z,77.65
2022-11-27T15:57:50.425Z,77.08
2022-11-27T16:00:17.538Z,77.43
2022-11-27T16:02:44.253Z,77.63
2022-11-27T16:05:11.161Z,77.43
2022-11-27T16:07:37.785Z,78.07
2022-11-27T16:10:05.255Z,78.34
2022-11-27T16:12:31.914Z,78.43
2022-11-27T16:14:58.487Z,78.60
2022-11-27T16:17:24.966Z,79.37
2022-11-27T16:19:51.622Z,79.46
2022-11-27T16:22:18.887Z,79.64
2022-11-27T16:24:45.426Z,79.54
2022-11-27T16:27:11.957Z,79.83
2022-11-27T16:29:38.487Z,80.65
2022-11-27T16:32:06.330Z,80.71
2022-11-27T16:34:33.201Z,80.53
2022-11-27T16:36:59.747Z,80.45
2022-11-27T16:39:26.379Z,80.50
2022-11-27T16:41:52.859Z,80.75
2022-11-27T16:44:19.479Z,80.92
2022-11-27T16:46:46.383Z,80.11
2022-11-27T16:49:13.476Z,80.81
2022-11-27T16:51:40.931Z,80.91
2022-11-27T16:54:10.048Z,81.12
2022-11-27T16:56:38.660Z,80.98
2022-11-27T16:59:10.416Z,81.86
2022-11-27T17:01:37.489Z,81.57
2022-11-27T17:04:07.205Z,81.96
2022-11-27T17:06:37.011Z,82.45
2022-11-27T17:09:05.354Z,81.57
2022-11-27T17:11:34.292Z,82.02
2022-11-27T17:14:03.589Z,82.23
2022-11-27T17:16:30.176Z,82.39
2022-11-27T17:18:56.798Z,82.62
2022-11-27T17:21:29.133Z,82.37
2022-11-27T17:23:57.416Z,82.42
2022-11-27T17:26:25.401Z,82.46
2022-11-27T17:28:56.095Z,82.39
2022-11-27T17:31:32.694Z,82.63
2022-11-27T17:34:00.172Z,83.05
2022-11-27T17:36:28.725Z,82.93
2022-11-27T17:38:56.910Z,83.39
2022-11-27T17:41:23.802Z,83.30
2022-11-27T17:43:50.375Z,82.85
2022-11-27T17:46:36.992Z,83.17
2022-11-27T17:49:06.041Z,83.80
2022-11-27T17:51:33.826Z,84.13
2022-11-27T17:54:01.822Z,83.93
2022-11-27T17:56:29.248Z,83.50
2022-11-27T17:58:55.804Z,83.74
2022-11-27T18:01:24.529Z,83.39
2022-11-27T18:03:54.064Z,83.86
2022-11-27T18:06:20.793Z,83.66
2022-11-27T18:08:47.812Z,83.25
2022-11-27T18:11:19.663Z,82.95
2022-11-27T18:13:47.080Z,82.70
2022-11-27T18:16:20.037Z,82.76
2022-11-27T18:18:48.795Z,83.35
2022-11-27T18:21:18.891Z,83.27
2022-11-27T18:24:21.298Z,83.33
2022-11-27T18:27:06.764Z,83.42
2022-11-27T18:29:23.307Z,83.99
2022-11-27T18:31:51.102Z,84.07
2022-11-27T18:34:17.944Z,84.21
2022-11-27T18:36:45.883Z,83.99
2022-11-27T18:39:12.519Z,84.20
2022-11-27T18:41:39.034Z,84.12
2022-11-27T18:44:05.635Z,83.96
2022-11-27T18:46:32.306Z,84.65
2022-11-27T18:48:59.124Z,84.25
2022-11-27T18:51:26.603Z,84.72
2022-11-27T18:53:54.416Z,84.79
2022-11-27T18:56:26.993Z,84.81
2022-11-27T18:58:53.991Z,84.62
2022-11-27T19:01:35.399Z,84.96
2022-11-27T19:04:05.136Z,84.31
2022-11-27T19:06:31.887Z,84.24
2022-11-27T19:08:59.238Z,85.23
2022-11-27T19:11:28.511Z,85.47
2022-11-27T19:13:56.065Z,84.89
2022-11-27T19:16:29.004Z,85.75
2022-11-27T19:19:00.017Z,85.78
2022-11-27T19:21:29.605Z,85.19
2022-11-27T19:23:58.418Z,85.66
2022-11-27T19:26:27.858Z,86.02
2022-11-27T19:28:56.713Z,85.86
2022-11-27T19:31:25.116Z,85.89
2022-11-27T19:33:53.636Z,86.11
2022-11-27T19:36:20.628Z,86.59
2022-11-27T19:38:47.666Z,86.98
2022-11-27T19:41:16.880Z,86.83
2022-11-27T19:43:44.119Z,87.27
2022-11-27T19:46:18.119Z,86.97
2022-11-27T19:48:45.483Z,87.26
2022-11-27T19:51:13.026Z,87.57
2022-11-27T19:53:40.575Z,86.86
2022-11-27T19:56:08.162Z,87.38
2022-11-27T19:58:37.119Z,86.83
2022-11-27T20:01:08.960Z,87.71
2022-11-27T20:03:36.081Z,87.13
2022-11-27T20:06:08.300Z,87.36
2022-11-27T20:08:35.436Z,87.43
2022-11-27T20:11:02.522Z,86.82
2022-11-27T20:13:29.062Z,87.33
2022-11-27T20:15:55.613Z,86.96
2022-11-27T20:18:22.229Z,87.32
2022-11-27T20:20:49.121Z,86.63
2022-11-27T20:23:15.757Z,87.21
2022-11-27T20:25:42.671Z,87.13
2022-11-27T20:28:09.713Z,87.17
2022-11-27T20:30:38.809Z,87.03
2022-11-27T20:33:07.684Z,86.77
2022-11-27T20:35:34.653Z,86.67
2022-11-27T20:38:01.191Z,86.71
2022-11-27T20:40:28.437Z,86.71
2022-11-27T20:42:54.954Z,86.05
2022-11-27T20:45:21.535Z,86.44
2022-11-27T20:47:48.096Z,86.74
2022-11-27T20:50:14.628Z,86.82
2022-11-27T20:52:41.171Z,87.08
2022-11-27T20:55:08.042Z,87.04
2022-11-27T20:57:34.602Z,87.04
2022-11-27T21:00:01.149Z,86.81
2022-11-27T21:02:27.812Z,87.06
2022-11-27T21:04:54.335Z,86.98
2022-11-27T21:07:21.543Z,86.72
2022-11-27T21:09:48.082Z,87.00
2022-11-27T21:12:15.556Z,86.87
2022-11-27T21:14:44.397Z,87.21
2022-11-27T21:17:10.967Z,86.75
2022-11-27T21:19:37.513Z,86.66
2022-11-27T21:22:04.024Z,86.90
2022-11-27T21:24:30.663Z,86.88
2022-11-27T21:26:57.279Z,87.37
2022-11-27T21:29:25.832Z,87.01
2022-11-27T21:31:53.260Z,87.03
2022-11-27T21:34:19.839Z,86.57
2022-11-27T21:36:46.515Z,87.41
2022-11-27T21:39:20.151Z,87.03
2022-11-27T21:41:49.086Z,87.12
2022-11-27T21:44:17.709Z,87.11
2022-11-27T21:46:45.599Z,87.37
2022-11-27T21:49:13.968Z,86.66
2022-11-27T21:51:41.335Z,86.87
2022-11-27T21:54:10.368Z,87.00
2022-11-27T21:56:39.789Z,86.98
2022-11-27T21:59:08.293Z,86.97
2022-11-27T22:01:35.165Z,86.94
2022-11-27T22:04:02.557Z,86.65
2022-11-27T22:06:31.077Z,86.90
2022-11-27T22:08:58.956Z,86.86
2022-11-27T22:11:28.068Z,86.37
2022-11-27T22:13:56.587Z,86.74
2022-11-27T22:16:25.554Z,86.41
2022-11-27T22:18:54.499Z,86.03
2022-11-27T22:21:21.413Z,86.21
2022-11-27T22:23:48.327Z,85.91
2022-11-27T22:26:18.283Z,85.63
2022-11-27T22:28:45.539Z,85.93
2022-11-27T22:31:20.937Z,85.63
2022-11-27T22:33:47.718Z,85.80
2022-11-27T22:36:26.284Z,85.86
2022-11-27T22:38:54.643Z,85.71
2022-11-27T22:41:23.315Z,85.63
2022-11-27T22:43:50.173Z,85.36
2022-11-27T22:46:25.683Z,85.32
2022-11-27T22:48:54.858Z,85.13
2022-11-27T22:51:22.696Z,84.70
2022-11-27T22:53:49.174Z,84.52
2022-11-27T22:56:15.705Z,84.77
2022-11-27T22:58:42.932Z,83.92
2022-11-27T23:01:20.697Z,84.24
2022-11-27T23:03:48.259Z,83.25
2022-11-27T23:06:17.985Z,84.12
2022-11-27T23:08:46.632Z,83.41
2022-11-27T23:11:22.959Z,83.20
2022-11-27T23:13:50.505Z,83.57
2022-11-27T23:16:18.274Z,83.10
2022-11-27T23:18:45.063Z,83.13
2022-11-27T23:21:21.129Z,83.75
2022-11-27T23:23:48.008Z,83.53
2022-11-27T23:26:18.629Z,83.40
2022-11-27T23:28:47.004Z,82.86
2022-11-27T23:31:33.859Z,82.60
2022-11-27T23:34:04.945Z,82.94
2022-11-27T23:36:32.481Z,83.27
2022-11-27T23:39:00.674Z,82.61
2022-11-27T23:41:27.428Z,82.89
2022-11-27T23:43:54.556Z,82.35
2022-11-27T23:46:23.647Z,82.56
2022-11-27T23:48:50.317Z,82.23
2022-11-27T23:51:20.608Z,82.73
2022-11-27T23:53:47.650Z,82.23
2022-11-27T23:56:18.255Z,82.40
2022-11-27T23:58:47.239Z,81.96
